createdAt,value
2022-12-15T00:00:07.183Z,25.10
2022-12-15T00:03:28.385Z,22.85
2022-12-15T00:06:50.556Z,20.50
2022-12-15T00:10:11.663Z,17.20
2022-12-15T00:13:33.195Z,31.40
2022-12-15T00:16:54.492Z,27.20
2022-12-15T00:20:15.772Z,28.25
2022-12-15T00:23:37.026Z,23.50
2022-12-15T00:26:58.549Z,28.00
2022-12-15T00:30:20.028Z,24.98
2022-12-15T00:33:41.469Z,26.67
2022-12-15T00:37:02.246Z,21.37
2022-12-15T00:40:06.979Z,29.23
2022-12-15T00:43:12.227Z,30.40
2022-12-15T00:46:33.887Z,28.17
2022-12-15T00:49:54.973Z,28.70
2022-12-15T00:53:16.309Z,24.55
2022-12-15T00:56:37.334Z,29.57
2022-12-15T00:59:58.798Z,28.43
2022-12-15T01:03:19.946Z,30.90
2022-12-15T01:06:41.663Z,26.67
2022-12-15T01:10:02.540Z,28.17
2022-12-15T01:13:24.440Z,33.30
2022-12-15T01:16:45.621Z,31.57
2022-12-15T01:20:07.139Z,31.02
2022-12-15T01:23:09.579Z,33.80
2022-12-15T01:26:12.419Z,30.33
2022-12-15T01:29:14.956Z,31.23
2022-12-15T01:32:17.843Z,28.40
2022-12-15T01:35:21.118Z,33.90
2022-12-15T01:38:26.424Z,30.85
2022-12-15T01:41:29.271Z,34.50
2022-12-15T01:44:32.123Z,36.50
2022-12-15T01:47:34.652Z,28.10
2022-12-15T01:50:41.465Z,30.35
2022-12-15T01:53:50.762Z,36.67
2022-12-15T01:56:57.277Z,32.65
2022-12-15T02:00:02.169Z,30.43
2022-12-15T02:03:05.440Z,30.83
2022-12-15T02:06:09.387Z,32.30
2022-12-15T02:09:12.129Z,32.08
2022-12-15T02:12:33.051Z,33.90
2022-12-15T02:15:46.317Z,33.07
2022-12-15T02:19:09.648Z,37.17
2022-12-15T02:22:45.078Z,31.27
2022-12-15T02:26:25.456Z,35.42
2022-12-15T02:29:46.205Z,37.60
2022-12-15T02:33:04.126Z,37.57
2022-12-15T02:36:16.891Z,32.37
2022-12-15T02:39:19.627Z,32.42
2022-12-15T02:42:22.835Z,31.65
2022-12-15T02:45:34.743Z,31.65
2022-12-15T02:48:50.379Z,33.80
2022-12-15T02:52:17.981Z,32.47
2022-12-15T02:55:28.082Z,34.72
2022-12-15T02:58:53.100Z,38.30
2022-12-15T03:01:59.856Z,34.92
2022-12-15T03:05:03.007Z,36.53
2022-12-15T03:08:05.552Z,42.43
2022-12-15T03:11:08.324Z,40.03
2022-12-15T03:14:10.849Z,36.20
2022-12-15T03:17:13.588Z,39.45
2022-12-15T03:20:16.402Z,35.93
2022-12-15T03:23:19.653Z,36.10
2022-12-15T03:26:22.166Z,38.38
2022-12-15T03:29:24.870Z,42.42
2022-12-15T03:32:28.378Z,41.65
2022-12-15T03:35:31.323Z,31.53
2022-12-15T03:38:33.847Z,27.70
2022-12-15T03:41:36.705Z,45.45
2022-12-15T03:44:44.864Z,46.53
2022-12-15T03:47:48.386Z,35.88
2022-12-15T03:50:50.998Z,42.13
2022-12-15T03:53:54.253Z,39.07
2022-12-15T03:56:56.732Z,42.80
2022-12-15T03:59:59.450Z,46.58
2022-12-15T04:03:02.117Z,43.40
2022-12-15T04:06:05.217Z,46.07
2022-12-15T04:09:07.705Z,46.57
2022-12-15T04:12:13.895Z,41.22
2022-12-15T04:15:16.549Z,47.70
2022-12-15T04:18:19.273Z,52.95
2022-12-15T04:21:22.643Z,39.33
2022-12-15T04:24:44.117Z,40.90
2022-12-15T04:28:05.169Z,38.00
2022-12-15T04:31:29.048Z,48.28
2022-12-15T04:34:50.290Z,35.38
2022-12-15T04:38:11.769Z,37.97
2022-12-15T04:41:33.361Z,43.13
2022-12-15T04:44:54.707Z,37.28
2022-12-15T04:48:15.485Z,44.72
2022-12-15T04:51:36.983Z,44.22
2022-12-15T04:54:58.209Z,48.67
2022-12-15T04:58:26.876Z,39.27
2022-12-15T05:01:48.378Z,42.15
2022-12-15T05:05:10.806Z,41.33
2022-12-15T05:08:31.883Z,44.17
2022-12-15T05:11:53.536Z,56.87
2022-12-15T05:15:14.815Z,41.57
2022-12-15T05:18:36.322Z,45.60
2022-12-15T05:21:57.526Z,39.17
2022-12-15T05:25:18.903Z,43.30
2022-12-15T05:28:40.005Z,41.97
2022-12-15T05:31:58.534Z,44.67
2022-12-15T05:35:01.496Z,44.53
2022-12-15T05:38:05.781Z,42.33
2022-12-15T05:41:08.646Z,36.50
2022-12-15T05:44:11.580Z,46.63
2022-12-15T05:47:14.113Z,44.90
2022-12-15T05:50:16.934Z,40.78
2022-12-15T05:53:19.415Z,40.90
2022-12-15T05:56:22.307Z,40.38
2022-12-15T05:59:24.908Z,46.67
2022-12-15T06:02:30.886Z,44.77
2022-12-15T06:05:33.710Z,44.30
2022-12-15T06:08:38.309Z,45.53
2022-12-15T06:11:41.191Z,42.70
2022-12-15T06:14:43.704Z,38.53
2022-12-15T06:17:49.711Z,42.13
2022-12-15T06:21:04.287Z,41.37
2022-12-15T06:24:08.014Z,38.75
2022-12-15T06:27:10.690Z,42.80
2022-12-15T06:30:14.106Z,43.17
2022-12-15T06:33:16.614Z,42.47
2022-12-15T06:36:19.859Z,40.05
2022-12-15T06:39:22.477Z,44.95
2022-12-15T06:42:25.347Z,41.22
2022-12-15T06:45:27.884Z,43.30
2022-12-15T06:48:31.189Z,41.40
2022-12-15T06:51:33.818Z,41.28
2022-12-15T06:54:36.674Z,45.47
2022-12-15T06:57:39.244Z,44.22
2022-12-15T07:00:43.288Z,20.73
2022-12-15T07:03:46.137Z,36.47
2022-12-15T07:06:49.328Z,38.55
2022-12-15T07:09:52.156Z,32.00
2022-12-15T07:12:56.905Z,36.30
2022-12-15T07:16:00.664Z,16.87
2022-12-15T07:19:03.746Z,21.47
2022-12-15T07:22:06.359Z,22.77
2022-12-15T07:25:09.748Z,25.90
2022-12-15T07:28:12.443Z,36.30
2022-12-15T07:31:15.763Z,36.20
2022-12-15T07:34:18.524Z,30.83
2022-12-15T07:37:21.468Z,37.58
2022-12-15T07:40:24.076Z,34.83
2022-12-15T07:43:28.579Z,35.30
2022-12-15T07:46:31.519Z,28.43
2022-12-15T07:49:34.643Z,36.43
2022-12-15T07:52:37.485Z,33.38
2022-12-15T07:56:05.525Z,35.92
2022-12-15T07:59:04.962Z,44.03
2022-12-15T08:02:10.452Z,35.17
2022-12-15T08:05:13.593Z,34.67
2022-12-15T08:08:16.499Z,33.17
2022-12-15T08:11:22.223Z,33.38
2022-12-15T08:14:25.027Z,35.67
2022-12-15T08:17:28.037Z,36.73
2022-12-15T08:20:31.311Z,37.07
2022-12-15T08:23:34.903Z,35.45
2022-12-15T08:26:38.288Z,35.92
2022-12-15T08:29:51.157Z,34.08
2022-12-15T08:32:54.601Z,42.57
2022-12-15T08:35:59.263Z,33.40
2022-12-15T08:39:02.875Z,42.42
2022-12-15T08:42:06.282Z,45.75
2022-12-15T08:45:11.080Z,46.05
2022-12-15T08:48:13.959Z,46.17
2022-12-15T08:51:17.269Z,49.90
2022-12-15T08:54:21.344Z,52.62
2022-12-15T08:57:24.049Z,43.20
2022-12-15T09:00:26.994Z,47.53
2022-12-15T09:03:30.108Z,51.93
2022-12-15T09:06:35.584Z,50.97
2022-12-15T09:09:38.416Z,49.58
2022-12-15T09:12:41.767Z,53.55
2022-12-15T09:16:08.887Z,50.92
2022-12-15T09:19:09.483Z,46.63
2022-12-15T09:22:12.133Z,52.00
2022-12-15T09:25:14.953Z,43.22
2022-12-15T09:28:17.598Z,50.28
2022-12-15T09:31:40.902Z,50.38
2022-12-15T09:34:43.437Z,42.80
2022-12-15T09:37:51.622Z,46.30
2022-12-15T09:40:54.534Z,47.70
2022-12-15T09:44:02.981Z,47.88
2022-12-15T09:47:12.139Z,49.95
2022-12-15T09:50:15.719Z,50.60
2022-12-15T09:53:53.011Z,51.03
2022-12-15T09:56:50.282Z,49.45
2022-12-15T10:00:22.180Z,49.05
2022-12-15T10:03:49.548Z,49.53
2022-12-15T10:07:00.628Z,44.20
2022-12-15T10:10:11.493Z,48.60
2022-12-15T10:13:20.673Z,41.35
2022-12-15T10:16:31.931Z,47.85
2022-12-15T10:19:41.875Z,49.78
2022-12-15T10:22:44.861Z,49.93
2022-12-15T10:26:01.633Z,50.20
2022-12-15T10:29:18.910Z,43.08
2022-12-15T10:32:59.993Z,53.38
2022-12-15T10:36:09.167Z,52.55
2022-12-15T10:39:14.437Z,48.33
2022-12-15T10:42:23.262Z,49.93
2022-12-15T10:45:37.071Z,46.80
2022-12-15T10:48:41.293Z,51.45
2022-12-15T10:51:45.624Z,54.33
2022-12-15T10:54:50.748Z,43.00
2022-12-15T10:58:01.163Z,58.73
2022-12-15T11:01:14.747Z,64.43
2022-12-15T11:04:28.942Z,52.90
2022-12-15T11:07:35.615Z,49.67
2022-12-15T11:11:17.248Z,45.03
2022-12-15T11:14:26.155Z,50.77
2022-12-15T11:17:38.180Z,54.10
2022-12-15T11:20:44.896Z,52.83
2022-12-15T11:24:27.771Z,44.50
2022-12-15T11:27:36.447Z,55.03
2022-12-15T11:30:44.126Z,58.60
2022-12-15T11:33:46.969Z,54.40
2022-12-15T11:37:17.876Z,51.65
2022-12-15T11:40:39.801Z,58.28
2022-12-15T11:44:04.337Z,56.10
2022-12-15T11:47:20.649Z,51.27
2022-12-15T11:50:31.354Z,60.97
2022-12-15T11:53:54.447Z,49.30
2022-12-15T11:57:04.290Z,50.90
2022-12-15T12:00:23.448Z,45.97
2022-12-15T12:03:53.486Z,51.53
2022-12-15T12:07:02.156Z,46.37
2022-12-15T12:10:32.653Z,52.80
2022-12-15T12:13:42.354Z,47.55
2022-12-15T12:16:55.205Z,51.13
2022-12-15T12:20:11.210Z,49.77
2022-12-15T12:23:21.493Z,51.65
2022-12-15T12:26:29.452Z,56.55
2022-12-15T12:29:44.010Z,54.05
2022-12-15T12:33:23.335Z,51.97
2022-12-15T12:36:26.135Z,52.57
2022-12-15T12:39:29.820Z,59.03
2022-12-15T12:42:43.891Z,67.15
2022-12-15T12:45:56.305Z,64.37
2022-12-15T12:49:27.073Z,66.90
2022-12-15T12:52:32.634Z,53.70
2022-12-15T12:55:42.493Z,57.40
2022-12-15T12:58:45.578Z,58.30
2022-12-15T13:01:51.868Z,61.78
2022-12-15T13:04:57.649Z,55.83
2022-12-15T13:08:06.431Z,57.43
2022-12-15T13:11:48.953Z,53.85
2022-12-15T13:14:53.841Z,55.97
2022-12-15T13:18:06.657Z,58.72
2022-12-15T13:21:41.672Z,67.23
2022-12-15T13:24:50.397Z,64.53
2022-12-15T13:27:57.879Z,57.70
2022-12-15T13:31:19.250Z,58.17
2022-12-15T13:34:24.505Z,60.25
2022-12-15T13:37:54.160Z,61.33
2022-12-15T13:40:56.921Z,67.43
2022-12-15T13:44:00.703Z,61.60
2022-12-15T13:47:13.708Z,50.33
2022-12-15T13:50:30.837Z,59.65
2022-12-15T13:53:44.968Z,69.17
2022-12-15T13:57:10.106Z,60.00
2022-12-15T14:00:19.195Z,57.13
2022-12-15T14:03:22.750Z,62.40
2022-12-15T14:06:28.778Z,56.15
2022-12-15T14:09:34.553Z,69.67
2022-12-15T14:12:39.726Z,54.03
2022-12-15T14:15:45.288Z,72.28
2022-12-15T14:19:10.960Z,55.45
2022-12-15T14:22:29.768Z,60.72
2022-12-15T14:25:33.917Z,52.33
2022-12-15T14:28:38.779Z,59.80
2022-12-15T14:31:41.494Z,50.00
2022-12-15T14:34:45.105Z,56.80
2022-12-15T14:37:56.223Z,56.33
2022-12-15T14:41:02.178Z,42.50
2022-12-15T14:44:38.365Z,60.00
2022-12-15T14:47:41.821Z,58.60
2022-12-15T14:50:48.334Z,60.05
2022-12-15T14:53:53.090Z,64.53
2022-12-15T14:57:01.536Z,61.17
2022-12-15T15:00:49.935Z,63.87
2022-12-15T15:04:01.575Z,50.67
2022-12-15T15:07:16.679Z,72.30
2022-12-15T15:10:29.185Z,36.78
2022-12-15T15:13:40.118Z,53.50
2022-12-15T15:16:43.818Z,49.13
2022-12-15T15:19:50.112Z,49.10
2022-12-15T15:23:22.430Z,49.28
2022-12-15T15:26:26.327Z,54.03
2022-12-15T15:29:36.348Z,66.50
2022-12-15T15:32:58.767Z,35.87
2022-12-15T15:36:02.404Z,79.25
2022-12-15T15:39:15.685Z,67.15
2022-12-15T15:42:19.931Z,71.00
2022-12-15T15:45:22.909Z,61.10
2022-12-15T15:48:27.610Z,69.63
2022-12-15T15:51:31.513Z,54.95
2022-12-15T15:54:36.373Z,59.05
2022-12-15T15:57:39.137Z,40.28
2022-12-15T16:00:41.759Z,55.87
2022-12-15T16:03:44.560Z,63.07
2022-12-15T16:06:47.958Z,61.80
2022-12-15T16:09:52.213Z,63.05
2022-12-15T16:12:56.051Z,42.88
2022-12-15T16:15:59.071Z,50.30
2022-12-15T16:19:01.746Z,63.53
2022-12-15T16:22:04.548Z,46.90
2022-12-15T16:25:14.366Z,50.85
2022-12-15T16:28:20.495Z,41.13
2022-12-15T16:31:41.296Z,51.80
2022-12-15T16:34:44.608Z,59.40
2022-12-15T16:37:47.277Z,53.42
2022-12-15T16:40:50.389Z,54.75
2022-12-15T16:43:52.887Z,55.25
2022-12-15T16:46:55.848Z,55.03
2022-12-15T16:49:58.519Z,61.70
2022-12-15T16:53:01.559Z,59.42
2022-12-15T16:56:06.339Z,63.63
2022-12-15T16:59:36.357Z,59.10
2022-12-15T17:02:40.134Z,49.97
2022-12-15T17:05:46.396Z,46.07
2022-12-15T17:08:51.909Z,46.83
2022-12-15T17:11:58.086Z,51.37
2022-12-15T17:15:02.442Z,49.45
2022-12-15T17:18:05.929Z,39.90
2022-12-15T17:21:14.121Z,55.20
2022-12-15T17:24:18.996Z,55.05
2022-12-15T17:27:28.185Z,54.38
2022-12-15T17:30:32.918Z,55.40
2022-12-15T17:33:36.226Z,48.73
2022-12-15T17:36:39.177Z,42.43
2022-12-15T17:39:44.876Z,44.83
2022-12-15T17:42:48.205Z,52.30
2022-12-15T17:45:50.955Z,54.17
2022-12-15T17:48:53.939Z,59.07
2022-12-15T17:51:57.105Z,53.47
2022-12-15T17:55:00.433Z,54.70
2022-12-15T17:58:09.544Z,57.50
2022-12-15T18:01:13.504Z,56.35
2022-12-15T18:04:16.361Z,65.10
2022-12-15T18:07:23.201Z,60.10
2022-12-15T18:10:33.220Z,61.10
2022-12-15T18:13:35.892Z,57.97
2022-12-15T18:16:38.786Z,50.83
2022-12-15T18:19:41.304Z,48.23
2022-12-15T18:22:44.315Z,54.00
2022-12-15T18:25:46.869Z,53.85
2022-12-15T18:28:49.771Z,45.22
2022-12-15T18:31:52.555Z,51.20
2022-12-15T18:34:56.289Z,55.97
2022-12-15T18:37:58.767Z,55.87
2022-12-15T18:41:01.783Z,56.00
2022-12-15T18:44:04.858Z,54.10
2022-12-15T18:47:16.340Z,52.95
2022-12-15T18:50:22.812Z,57.73
2022-12-15T18:53:29.122Z,51.90
2022-12-15T18:56:31.891Z,47.42
2022-12-15T18:59:34.790Z,57.45
2022-12-15T19:02:37.680Z,54.80
2022-12-15T19:05:41.829Z,51.30
2022-12-15T19:08:44.634Z,55.40
2022-12-15T19:12:07.599Z,58.03
2022-12-15T19:15:18.480Z,51.50
2022-12-15T19:18:42.597Z,55.15
2022-12-15T19:22:04.208Z,53.60
2022-12-15T19:25:07.377Z,51.53
2022-12-15T19:28:21.194Z,50.72
2022-12-15T19:31:24.434Z,30.58
2022-12-15T19:34:27.211Z,45.30
2022-12-15T19:37:31.233Z,58.13
2022-12-15T19:40:35.259Z,53.77
2022-12-15T19:43:38.162Z,58.67
2022-12-15T19:46:42.325Z,51.13
2022-12-15T19:49:45.323Z,66.00
2022-12-15T19:52:50.917Z,59.03
2022-12-15T19:55:56.037Z,53.50
2022-12-15T19:58:58.740Z,59.53
2022-12-15T20:02:01.853Z,44.15
2022-12-15T20:05:05.457Z,48.58
2022-12-15T20:08:11.609Z,60.00
2022-12-15T20:11:23.595Z,53.07
2022-12-15T20:14:26.205Z,61.20
2022-12-15T20:17:29.145Z,49.78
2022-12-15T20:20:31.794Z,61.60
2022-12-15T20:23:35.527Z,55.00
2022-12-15T20:26:39.427Z,71.77
2022-12-15T20:29:42.596Z,68.60
2022-12-15T20:32:45.552Z,55.17
2022-12-15T20:35:49.508Z,62.33
2022-12-15T20:38:52.680Z,69.97
2022-12-15T20:41:56.668Z,66.50
2022-12-15T20:44:59.192Z,68.10
2022-12-15T20:48:02.608Z,69.35
2022-12-15T20:51:09.631Z,69.10
2022-12-15T20:54:15.699Z,68.73
2022-12-15T20:57:18.604Z,73.37
2022-12-15T21:00:22.095Z,73.47
2022-12-15T21:03:41.015Z,74.00
2022-12-15T21:06:44.420Z,72.95
2022-12-15T21:09:47.645Z,76.20
2022-12-15T21:12:51.749Z,73.37
2022-12-15T21:15:54.556Z,74.47
2022-12-15T21:19:19.159Z,78.28
2022-12-15T21:22:25.581Z,68.45
2022-12-15T21:25:29.179Z,75.23
2022-12-15T21:28:32.133Z,66.63
2022-12-15T21:31:35.400Z,63.35
2022-12-15T21:34:38.126Z,68.37
2022-12-15T21:37:42.333Z,66.03
2022-12-15T21:40:44.828Z,69.03
2022-12-15T21:43:48.426Z,66.50
2022-12-15T21:46:50.985Z,66.18
2022-12-15T21:49:55.021Z,67.93
2022-12-15T21:52:57.702Z,61.92
2022-12-15T21:56:01.616Z,64.10
2022-12-15T21:59:11.398Z,64.93
2022-12-15T22:02:23.205Z,65.53
2022-12-15T22:05:32.562Z,54.90
2022-12-15T22:08:35.789Z,66.53
2022-12-15T22:11:39.728Z,54.70
2022-12-15T22:14:42.448Z,41.73
2022-12-15T22:17:45.566Z,54.10
2022-12-15T22:20:50.059Z,49.30
2022-12-15T22:23:52.866Z,61.58
2022-12-15T22:26:55.417Z,46.23
2022-12-15T22:29:58.258Z,60.57
2022-12-15T22:33:00.871Z,40.67
2022-12-15T22:36:03.820Z,49.92
2022-12-15T22:39:10.854Z,52.62
2022-12-15T22:42:17.215Z,46.80
2022-12-15T22:45:21.323Z,46.40
2022-12-15T22:48:31.833Z,42.83
2022-12-15T22:51:35.110Z,36.33
2022-12-15T22:54:41.382Z,45.30
2022-12-15T22:58:01.787Z,41.53
2022-12-15T23:01:06.590Z,39.73
2022-12-15T23:04:09.060Z,41.22
2022-12-15T23:07:11.898Z,41.85
2022-12-15T23:10:34.358Z,39.47
2022-12-15T23:13:37.106Z,32.60
2022-12-15T23:16:39.689Z,29.33
2022-12-15T23:19:44.266Z,29.08
2022-12-15T23:22:47.275Z,27.20
2022-12-15T23:25:49.999Z,26.37
2022-12-15T23:28:53.832Z,25.63
2022-12-15T23:31:58.010Z,23.00
2022-12-15T23:35:00.932Z,27.00
2022-12-15T23:38:03.740Z,21.95
2022-12-15T23:41:06.881Z,19.55
2022-12-15T23:44:12.310Z,16.17
2022-12-15T23:47:14.920Z,20.90
2022-12-15T23:50:18.670Z,14.95
2022-12-15T23:53:21.128Z,19.50
2022-12-15T23:56:24.693Z,14.18
2022-12-15T23:59:27.262Z,18.93
